Buffalo, WY

6:04 PM MDT on March 31, 2015 (GMT -0600)
Esponda Ranch | | Change Station
CLOSE
Current Station
Personal Weather Station
Location: Buffalo, WY
Elevation: 4665 ft
Nearby Weather Stations
Active Advisory: Fire Weather Warning

Elev 4665 ft 44.32 °N, 106.67 °W | Updated 17 seconds ago

Clear
Clear
70.7 °F
Feels Like 73 °F
N
9.0
Wind Variable Wind from SSE
Gusts 13.0 mph

Today
High -- | Low -- °F
--% Chance of Precip.
Yesterday
High -- | Low -- °F
Precip. -- in
6:50 AM 7:32 PM
Waxing Gibbous, 89% visible
Pressure 29.55 in
Visibility 10.0 miles
Clouds Clear
Heat Index 73 °F
Dew Point 22 °F
Humidity 16%
Rainfall 0.00 in
Snow Depth Not available.
UV 1 out of 12
Pollen 7.50 out of 12
Air Quality Not available.
Flu Activity Not available.
METAR KBYG 312353Z AUTO 17009G20KT 10SM CLR 22/M09 A2970 RMK AO2 SLP007 T02171089 10239 20206 56025

More Conditions Fewer Conditions

Pressure 29.55 in
Visibility 10.0 miles
Clouds Clear
Heat Index 73 °F
Dew Point 22 °F
Humidity 16%
Rainfall 0.00 in
Snow Depth Not available.
UV 1 out of 12
Pollen 7.50 out of 12
Air Quality Not available.
Flu Activity Not available.
METAR KBYG 312353Z AUTO 17009G20KT 10SM CLR 22/M09 A2970 RMK AO2 SLP007 T02171089 10239 20206 56025

More Conditions Fewer Conditions

10-Day Weather Forecast

Almanac

Astronomy

Mar. 31, 2015 Rise Set
Actual Time
Civil Twilight
Nautical Twilight
Astronomical Twilight
Moon
Length of Visible Light
Length of Day
Tomorrow will be .
, % of the Moon is Illuminated

Today's Extremes

State Highs State Lows

Community

WunderPhotos

Upload Photos

1,809,883 photos uploaded!

WunderBlogs® & News

Nearby

Air Quality

  Air Quality AQ Index Pollutant
Not available.

Snow Depth

Station Depth Elevation

Earthquake Activity

City Distance Mag. Time & Date
Minimum magnitude displayed is 2.5.

Coastal Water Temperatures

Place Temperature

Stations

Nearby Weather Stations

Station Location Temp. Windchill Dew Point Humidity Wind Precip. Elev Updated Type
                   
Fire Weather Warning
Statement as of 11:27 AM MDT on March 31, 2015

... Red flag warning remains in effect until 9 PM MDT this evening
for wind and low relative humidity for fire weather zone 281...

* affected area... Johnson County fire weather zone 281.

* Winds... southwest 15 to 25 mph with gusts up to 35 mph.

* Relative humidity... as low as 11 percent.

* Impacts... residents in this area are advised not to conduct
any burning this afternoon... as any fire could rapidly spread
through fine fuels such as grasses and small vegetation.

Precautionary/preparedness actions...

A red flag warning means that critical fire weather conditions
are either occurring now... or will shortly. A combination of
strong winds... low relative humidity... and warm temperatures can
contribute to extreme fire behavior.